TimeMDT,TemperatureF,Dew PointF,Humidity,Sea Level PressureIn,VisibilityMPH,Wind Direction,Wind SpeedMPH,Gust SpeedMPH,PrecipitationIn,Events,Conditions,WindDirDegrees,DateUTC
12:53 AM,72.0,16.0,12,29.50,-9999.0,SW,13.8,-,N/A,,Clear,220,2013-05-23 06:53:00
1:53 AM,66.9,16.0,14,29.53,-9999.0,SW,8.1,-,N/A,,Clear,230,2013-05-23 07:53:00
2:53 AM,69.1,16.0,13,29.53,-9999.0,SW,10.4,-,N/A,,Clear,220,2013-05-23 08:53:00
3:53 AM,71.1,17.1,13,29.54,-9999.0,South,13.8,-,N/A,,Clear,190,2013-05-23 09:53:00
4:53 AM,66.0,18.0,16,29.56,-9999.0,SW,9.2,-,N/A,,Clear,230,2013-05-23 10:53:00
5:53 AM,59.0,19.0,21,29.60,-9999.0,SW,9.2,-,N/A,,Clear,220,2013-05-23 11:53:00
6:53 AM,63.0,21.0,20,29.61,-9999.0,Calm,Calm,-,N/A,,Unknown,0,2013-05-23 12:53:00
7:53 AM,71.1,21.0,15,29.61,-9999.0,SSE,11.5,-,N/A,,Clear,150,2013-05-23 13:53:00
8:53 AM,73.9,21.0,14,29.62,-9999.0,SSE,15.0,-,N/A,,Clear,150,2013-05-23 14:53:00
9:53 AM,77.0,19.0,11,29.63,-9999.0,SW,15.0,25.3,N/A,,Clear,220,2013-05-23 15:53:00
10:53 AM,80.1,14.0,8,29.61,-9999.0,South,19.6,32.2,N/A,,Clear,190,2013-05-23 16:53:00
11:53 AM,82.0,15.1,8,29.60,-9999.0,SSW,24.2,32.2,N/A,,Clear,210,2013-05-23 17:53:00
12:53 PM,84.0,12.0,7,29.58,-9999.0,SW,26.5,32.2,N/A,,Clear,230,2013-05-23 18:53:00
1:53 PM,84.9,12.0,7,29.57,-9999.0,SSW,28.8,39.1,N/A,,Clear,200,2013-05-23 19:53:00
2:53 PM,87.1,10.9,6,29.54,-9999.0,South,25.3,35.7,N/A,,Clear,190,2013-05-23 20:53:00
3:53 PM,88.0,10.9,6,29.52,-9999.0,SSW,23.0,35.7,N/A,,Clear,200,2013-05-23 21:53:00
4:53 PM,87.1,10.9,6,29.51,-9999.0,SW,23.0,39.1,N/A,,Clear,230,2013-05-23 22:53:00
5:53 PM,87.1,12.9,6,29.52,10.0,SW,21.9,31.1,N/A,,Clear,220,2013-05-23 23:53:00
6:53 PM,86.0,10.9,6,29.51,10.0,SW,16.1,25.3,N/A,,Clear,230,2013-05-24 00:53:00
7:53 PM,82.0,10.9,7,29.51,10.0,SW,21.9,31.1,N/A,,Clear,230,2013-05-24 01:53:00
8:53 PM,78.1,10.9,8,29.53,10.0,SSW,11.5,-,N/A,,Clear,210,2013-05-24 02:53:00
9:53 PM,72.0,12.0,10,29.57,10.0,SSW,10.4,-,N/A,,Clear,210,2013-05-24 03:53:00
10:53 PM,72.0,10.0,9,29.59,10.0,SW,12.7,-,N/A,,Clear,220,2013-05-24 04:53:00
11:53 PM,69.1,10.0,10,29.61,10.0,WNW,4.6,-,N/A,,Clear,290,2013-05-24 05:53:00